createdAt,value
2022-08-03T00:01:33.914Z,26.50
2022-08-03T00:04:12.427Z,26.50
2022-08-03T00:07:08.886Z,26.40
2022-08-03T00:09:39.835Z,26.40
2022-08-03T00:12:07.733Z,26.40
2022-08-03T00:14:35.063Z,26.40
2022-08-03T00:17:08.683Z,26.40
2022-08-03T00:19:49.291Z,26.40
2022-08-03T00:22:48.893Z,26.40
2022-08-03T00:31:14.300Z,26.40
2022-08-03T00:33:58.822Z,26.30
2022-08-03T00:36:41.404Z,26.30
2022-08-03T00:39:19.762Z,26.30
2022-08-03T00:41:51.964Z,26.30
2022-08-03T00:44:23.169Z,26.20
2022-08-03T00:49:44.179Z,26.10
2022-08-03T00:55:33.510Z,26.10
2022-08-03T01:07:20.553Z,25.90
2022-08-03T01:17:03.333Z,25.70
2022-08-03T01:20:05.785Z,25.60
2022-08-03T01:23:31.994Z,25.60
2022-08-03T01:26:34.495Z,25.70
2022-08-03T01:30:00.610Z,25.70
2022-08-03T01:36:04.448Z,25.50
2022-08-03T01:38:35.921Z,25.40
2022-08-03T01:41:19.277Z,25.40
2022-08-03T01:44:29.786Z,25.40
2022-08-03T01:47:08.510Z,25.40
2022-08-03T01:50:05.075Z,25.30
2022-08-03T01:52:37.181Z,25.30
2022-08-03T01:55:34.941Z,25.20
2022-08-03T02:01:03.189Z,25.20
2022-08-03T02:04:00.731Z,25.20
2022-08-03T02:07:00.399Z,25.20
2022-08-03T02:09:39.028Z,25.10
2022-08-03T02:15:05.457Z,25.10
2022-08-03T02:20:41.863Z,25.10
2022-08-03T02:23:44.053Z,25.20
2022-08-03T02:32:49.111Z,25.20
2022-08-03T02:35:31.529Z,25.30
2022-08-03T02:38:09.806Z,25.30
2022-08-03T02:44:06.938Z,25.40
2022-08-03T02:47:18.278Z,25.40
2022-08-03T02:53:02.261Z,25.40
2022-08-03T02:59:58.303Z,25.20
2022-08-03T03:02:28.660Z,25.20
2022-08-03T03:05:52.563Z,25.20
2022-08-03T03:08:25.840Z,25.20
2022-08-03T03:11:14.500Z,25.20
2022-08-03T03:13:54.815Z,25.10
2022-08-03T03:19:21.690Z,25.00
2022-08-03T03:22:10.557Z,24.90
2022-08-03T03:25:01.386Z,24.90
2022-08-03T03:27:49.569Z,24.80
2022-08-03T03:30:25.890Z,24.80
2022-08-03T03:33:34.388Z,24.90
2022-08-03T03:36:13.993Z,24.90
2022-08-03T03:38:43.014Z,24.90
2022-08-03T03:44:10.141Z,25.00
2022-08-03T03:46:51.013Z,25.10
2022-08-03T03:49:38.211Z,25.10
2022-08-03T03:52:18.650Z,25.10
2022-08-03T03:55:00.832Z,25.10
2022-08-03T03:57:36.821Z,25.10
2022-08-03T04:07:22.257Z,25.20
2022-08-03T04:10:33.519Z,25.30
2022-08-03T04:13:48.535Z,25.30
2022-08-03T04:16:23.725Z,25.20
2022-08-03T04:22:08.524Z,25.00
2022-08-03T04:25:13.108Z,25.00
2022-08-03T04:28:32.017Z,25.00
2022-08-03T04:31:13.585Z,24.90
2022-08-03T04:36:39.005Z,24.80
2022-08-03T04:39:34.897Z,24.90
2022-08-03T04:42:44.256Z,24.90
2022-08-03T04:45:15.069Z,24.90
2022-08-03T04:50:48.300Z,24.90
2022-08-03T04:53:23.608Z,24.90
2022-08-03T04:55:54.787Z,24.90
2022-08-03T04:58:28.976Z,24.90
2022-08-03T05:01:23.442Z,25.10
2022-08-03T05:03:56.672Z,25.00
2022-08-03T05:06:54.984Z,25.10
2022-08-03T05:09:52.336Z,25.10
2022-08-03T05:12:40.655Z,25.10
2022-08-03T05:15:17.524Z,25.20
2022-08-03T05:17:52.142Z,25.20
2022-08-03T05:20:25.722Z,25.20
2022-08-03T05:23:08.597Z,25.30
2022-08-03T05:25:52.773Z,25.40
2022-08-03T05:28:51.318Z,25.40
2022-08-03T05:31:35.084Z,25.40
2022-08-03T05:34:11.964Z,25.30
2022-08-03T05:36:45.932Z,25.40
2022-08-03T05:39:13.693Z,25.40
2022-08-03T05:41:43.703Z,25.40
2022-08-03T05:44:13.344Z,25.40
2022-08-03T05:46:40.461Z,25.50
2022-08-03T05:49:12.232Z,25.50
2022-08-03T05:51:44.411Z,25.60
2022-08-03T05:54:20.640Z,25.70
2022-08-03T05:56:47.577Z,25.70
2022-08-03T05:59:37.711Z,25.70
2022-08-03T06:02:03.960Z,25.80
2022-08-03T06:04:31.002Z,25.90
2022-08-03T06:07:02.277Z,25.90
2022-08-03T06:10:34.149Z,25.90
2022-08-03T06:12:28.646Z,26.00
2022-08-03T06:15:01.492Z,26.10
2022-08-03T06:20:36.402Z,26.20
2022-08-03T06:23:04.681Z,26.40
2022-08-03T06:25:35.684Z,26.50
2022-08-03T06:28:05.311Z,26.50
2022-08-03T06:30:32.374Z,26.60
2022-08-03T06:32:59.470Z,26.70
2022-08-03T06:35:28.025Z,26.80
2022-08-03T06:37:55.311Z,26.90
2022-08-03T06:40:34.183Z,27.00
2022-08-03T06:43:02.808Z,27.10
2022-08-03T06:45:31.725Z,27.10
2022-08-03T06:48:07.266Z,27.20
2022-08-03T06:50:36.111Z,27.30
2022-08-03T06:53:03.682Z,27.40
2022-08-03T06:55:30.932Z,27.50
2022-08-03T06:57:59.777Z,27.60
2022-08-03T07:00:31.143Z,27.60
2022-08-03T07:02:58.639Z,27.70
2022-08-03T07:05:25.806Z,27.80
2022-08-03T07:07:56.865Z,27.80
2022-08-03T07:10:24.204Z,27.90
2022-08-03T07:12:55.687Z,28.00
2022-08-03T07:15:54.600Z,28.00
2022-08-03T07:18:12.367Z,28.20
2022-08-03T07:20:39.351Z,28.30
2022-08-03T07:23:06.360Z,28.30
2022-08-03T07:25:33.484Z,28.40
2022-08-03T07:28:00.447Z,28.50
2022-08-03T07:30:27.530Z,28.50
2022-08-03T07:32:54.511Z,28.50
2022-08-03T07:35:24.864Z,28.60
2022-08-03T07:37:54.446Z,28.70
2022-08-03T07:40:23.003Z,28.60
2022-08-03T07:42:53.414Z,28.70
2022-08-03T07:48:25.478Z,28.90
2022-08-03T07:50:53.119Z,29.00
2022-08-03T07:53:20.350Z,29.00
2022-08-03T07:55:47.403Z,29.10
2022-08-03T07:58:21.948Z,29.10
2022-08-03T08:00:53.212Z,29.20
2022-08-03T08:03:22.005Z,29.20
2022-08-03T08:05:49.825Z,29.30
2022-08-03T08:08:16.842Z,29.40
2022-08-03T08:10:58.430Z,29.50
2022-08-03T08:13:26.243Z,29.70
2022-08-03T08:15:53.253Z,29.80
2022-08-03T08:18:20.205Z,30.00
2022-08-03T08:20:47.325Z,30.10
2022-08-03T08:23:41.652Z,30.20
2022-08-03T08:26:02.091Z,30.40
2022-08-03T08:28:33.223Z,30.40
2022-08-03T08:31:01.432Z,30.50
2022-08-03T08:33:42.249Z,30.50
2022-08-03T08:36:15.865Z,30.60
2022-08-03T08:38:45.668Z,30.70
2022-08-03T08:41:14.518Z,30.90
2022-08-03T08:43:42.490Z,30.90
2022-08-03T08:46:23.644Z,30.80
2022-08-03T08:48:52.553Z,30.80
2022-08-03T08:51:21.236Z,30.90
2022-08-03T08:53:52.597Z,30.90
2022-08-03T08:56:22.904Z,31.10
2022-08-03T08:58:53.177Z,31.30
2022-08-03T09:01:20.506Z,31.30
2022-08-03T09:03:48.820Z,31.30
2022-08-03T09:06:16.532Z,31.50
2022-08-03T09:08:43.544Z,31.60
2022-08-03T09:11:12.081Z,31.70
2022-08-03T09:13:39.350Z,31.60
2022-08-03T09:16:14.141Z,31.70
2022-08-03T09:18:43.274Z,31.80
2022-08-03T09:21:34.841Z,32.00
2022-08-03T09:24:06.300Z,32.10
2022-08-03T09:26:36.458Z,32.20
2022-08-03T09:29:13.510Z,32.30
2022-08-03T09:31:47.195Z,32.30
2022-08-03T09:34:18.238Z,32.30
2022-08-03T09:36:49.371Z,32.40
2022-08-03T09:39:41.561Z,32.50
2022-08-03T09:42:23.810Z,32.60
2022-08-03T09:44:52.322Z,32.60
2022-08-03T09:47:32.438Z,32.60
2022-08-03T09:50:18.572Z,32.60
2022-08-03T09:52:52.664Z,32.80
2022-08-03T09:56:34.961Z,33.00
2022-08-03T09:58:14.549Z,33.30
2022-08-03T10:01:05.957Z,33.50
2022-08-03T10:04:03.288Z,33.60
2022-08-03T10:06:28.796Z,33.70
2022-08-03T10:09:18.956Z,33.90
2022-08-03T10:11:53.842Z,34.00
2022-08-03T10:14:45.775Z,33.90
2022-08-03T10:17:13.727Z,33.80
2022-08-03T10:19:41.639Z,33.90
2022-08-03T10:22:15.485Z,34.10
2022-08-03T10:24:58.870Z,34.20
2022-08-03T10:27:31.566Z,34.40
2022-08-03T10:30:05.034Z,34.30
2022-08-03T10:32:38.924Z,34.20
2022-08-03T10:35:19.948Z,34.30
2022-08-03T10:38:12.335Z,34.40
2022-08-03T10:40:48.865Z,34.50
2022-08-03T10:43:27.829Z,34.50
2022-08-03T10:45:56.866Z,34.50
2022-08-03T10:48:26.685Z,34.60
2022-08-03T10:50:54.727Z,34.60
2022-08-03T10:53:55.279Z,34.80
2022-08-03T10:57:13.605Z,34.60
2022-08-03T10:59:46.146Z,34.40
2022-08-03T11:02:17.745Z,34.30
2022-08-03T11:04:51.379Z,34.50
2022-08-03T11:07:25.640Z,34.80
2022-08-03T11:10:01.498Z,34.80
2022-08-03T11:12:34.253Z,35.00
2022-08-03T11:15:11.527Z,35.20
2022-08-03T11:17:46.736Z,35.10
2022-08-03T11:20:53.445Z,34.90
2022-08-03T11:24:03.010Z,35.10
2022-08-03T11:26:31.028Z,35.30
2022-08-03T11:29:28.192Z,35.40
2022-08-03T11:31:55.817Z,35.20
2022-08-03T11:34:36.228Z,35.50
2022-08-03T11:37:30.091Z,35.60
2022-08-03T11:40:02.389Z,35.60
2022-08-03T11:42:30.128Z,35.60
2022-08-03T11:45:06.833Z,35.60
2022-08-03T11:47:37.851Z,35.80
2022-08-03T11:50:24.076Z,35.90
2022-08-03T11:52:51.848Z,35.80
2022-08-03T11:55:38.977Z,35.90
2022-08-03T11:59:00.903Z,36.20
2022-08-03T12:01:18.785Z,36.20
2022-08-03T12:03:58.652Z,36.20
2022-08-03T12:06:27.912Z,36.20
2022-08-03T12:08:56.364Z,36.60
2022-08-03T12:14:50.243Z,36.80
2022-08-03T12:17:23.067Z,36.50
2022-08-03T12:19:55.385Z,36.90
2022-08-03T12:22:48.618Z,36.70
2022-08-03T12:25:39.646Z,36.90
2022-08-03T12:28:37.845Z,36.70
2022-08-03T12:31:27.740Z,36.70
2022-08-03T12:34:04.168Z,36.70
2022-08-03T12:36:37.987Z,37.00
2022-08-03T12:39:08.768Z,37.30
2022-08-03T12:41:48.910Z,37.50
2022-08-03T12:44:20.930Z,37.50
2022-08-03T12:46:58.878Z,37.60
2022-08-03T12:49:30.414Z,37.50
2022-08-03T12:52:07.615Z,37.70
2022-08-03T12:54:39.239Z,37.50
2022-08-03T12:57:27.501Z,37.60
2022-08-03T13:00:19.957Z,37.80
2022-08-03T13:03:38.252Z,37.90
2022-08-03T13:06:38.722Z,38.00
2022-08-03T13:09:15.022Z,38.00
2022-08-03T13:12:25.028Z,38.20
2022-08-03T13:14:58.950Z,38.40
2022-08-03T13:17:42.262Z,38.50
2022-08-03T13:20:17.767Z,38.40
2022-08-03T13:22:50.315Z,38.40
2022-08-03T13:25:55.555Z,38.40
2022-08-03T13:28:26.114Z,38.40
2022-08-03T13:31:18.227Z,38.00
2022-08-03T13:37:20.091Z,38.00
2022-08-03T13:39:57.183Z,37.70
2022-08-03T13:42:34.055Z,37.70
2022-08-03T13:45:09.574Z,37.90
2022-08-03T13:47:38.079Z,38.20
2022-08-03T13:50:07.551Z,38.40
2022-08-03T13:52:39.308Z,38.50
2022-08-03T13:55:32.055Z,38.60
2022-08-03T13:58:07.577Z,38.80
2022-08-03T14:00:35.496Z,38.90
2022-08-03T14:03:14.748Z,38.90
2022-08-03T14:05:58.674Z,38.70
2022-08-03T14:08:34.533Z,38.70
2022-08-03T14:11:08.434Z,38.80
2022-08-03T14:13:40.131Z,38.80
2022-08-03T14:16:10.594Z,38.30
2022-08-03T14:18:46.936Z,38.40
2022-08-03T14:21:42.191Z,38.40
2022-08-03T14:24:22.258Z,38.40
2022-08-03T14:26:54.740Z,38.20
2022-08-03T14:29:51.542Z,38.10
2022-08-03T14:32:34.017Z,38.50
2022-08-03T14:35:16.468Z,38.70
2022-08-03T14:42:17.600Z,38.80
2022-08-03T14:51:04.367Z,38.80
2022-08-03T14:58:01.691Z,39.10
2022-08-03T15:01:01.394Z,39.40
2022-08-03T15:06:51.467Z,39.00
2022-08-03T15:14:22.221Z,39.40
2022-08-03T15:20:00.774Z,39.30
2022-08-03T15:22:34.564Z,39.00
2022-08-03T15:28:02.763Z,38.50
2022-08-03T15:30:34.348Z,38.60
2022-08-03T15:33:02.024Z,38.70
2022-08-03T15:35:29.176Z,38.60
2022-08-03T15:37:56.960Z,38.70
2022-08-03T15:43:13.739Z,38.70
2022-08-03T16:02:55.730Z,40.20
2022-08-03T16:08:16.340Z,41.20
2022-08-03T16:10:47.584Z,41.60
2022-08-03T16:13:23.241Z,41.80
2022-08-03T16:16:11.797Z,41.80
2022-08-03T16:19:05.255Z,42.00
2022-08-03T16:21:48.720Z,42.20
2022-08-03T16:24:30.612Z,42.50
2022-08-03T16:27:01.695Z,42.60
2022-08-03T16:29:29.661Z,42.70
2022-08-03T16:31:56.926Z,42.80
2022-08-03T16:34:24.343Z,43.10
2022-08-03T16:37:35.444Z,43.40
2022-08-03T16:39:53.677Z,43.40
2022-08-03T16:42:20.840Z,43.30
2022-08-03T16:44:48.806Z,43.10
2022-08-03T16:47:22.433Z,42.80
2022-08-03T16:49:56.288Z,42.60
2022-08-03T16:52:24.486Z,42.00
2022-08-03T16:54:53.733Z,41.00
2022-08-03T16:57:58.424Z,40.60
2022-08-03T17:00:33.764Z,39.50
2022-08-03T17:03:24.277Z,38.50
2022-08-03T17:05:52.227Z,37.60
2022-08-03T17:08:26.596Z,36.90
2022-08-03T17:13:57.724Z,36.00
2022-08-03T17:16:38.589Z,35.60
2022-08-03T17:19:08.006Z,35.40
2022-08-03T17:21:50.798Z,35.20
2022-08-03T17:24:35.552Z,35.10
2022-08-03T17:28:49.758Z,35.00
2022-08-03T17:33:56.948Z,34.60
2022-08-03T17:37:02.725Z,34.60
2022-08-03T17:40:04.212Z,34.50
2022-08-03T18:57:00.817Z,33.00
2022-08-03T19:00:03.982Z,32.60
2022-08-03T19:06:30.670Z,32.30
2022-08-03T19:13:53.151Z,31.90
2022-08-03T19:31:06.431Z,31.10
2022-08-03T19:34:01.912Z,31.10
2022-08-03T19:36:56.588Z,31.00
2022-08-03T19:46:53.806Z,30.90
2022-08-03T19:50:05.059Z,30.80
2022-08-03T19:55:49.063Z,30.80
2022-08-03T20:04:53.326Z,30.60
2022-08-03T20:07:22.894Z,30.50
2022-08-03T20:10:02.097Z,30.50
2022-08-03T20:15:22.427Z,30.40
2022-08-03T20:21:28.289Z,30.30
2022-08-03T20:28:07.082Z,30.20
2022-08-03T20:33:49.106Z,30.10
2022-08-03T20:39:33.754Z,29.90
2022-08-03T20:42:14.125Z,29.90
2022-08-03T20:45:13.992Z,29.80
2022-08-03T20:48:32.115Z,29.70
2022-08-03T20:51:50.721Z,29.60
2022-08-03T21:08:07.090Z,29.50
2022-08-03T21:22:28.183Z,29.30
2022-08-03T21:25:18.641Z,29.10
2022-08-03T21:28:12.604Z,29.20
2022-08-03T21:31:08.266Z,29.10
